Airfield :
LOGIN :

Register | Disclaimer

   EN    FR    IT 

 










Legend :    VFR   Marginal VFR   IFR   Intensive IFR   Very Intensive IFR
Visi :
Ceiling :
>= 8 km
>= 3000ft
5 to 8 km
1000 to 3000 ft
1500m to 5 km
500 to 1000 ft
800 to 1500m
200 to 500 ft
< 800m
< 200 ft
Symbols :   Thunderstorms  Fog  Heavy snow  Heavy precipitations  Wind > 20 kt
SIGMETs :     Misc.  Thunderstorms  Icing  Turbulence  Mountain Waves  Volcanic Ashes






- Airport Elevation : 538 ft
- IATA code : TNF


LFPN - Toussus Le Noble

CURRENT METAR :
  • 301000Z AUTO 05017KT 010V070 9999 NSC 04/M12 Q1028 TEMPO 04015G30KT

EXPIRED METARs :
  • 300930Z AUTO 05018KT 030V090 CAVOK 04/M10 Q1029 TEMPO 04015G30KT
  • 300900Z AUTO 05017KT CAVOK 03/M09 Q1029 TEMPO 04015G30KT
  • 300830Z AUTO 04018KT CAVOK 02/M09 Q1029 BECMG 03015G30KT
  • 300800Z AUTO 04016G27KT 010V080 CAVOK 02/M09 Q1029 NOSIG
  • 300730Z AUTO 04016KT 010V070 CAVOK 01/M09 Q1029 BECMG 03015G30KT

TAF TAF LFPN
Valid from the 30 at 09:00 until the 30 at 18:00 UTC


300800Z 3009/3018 04015G25KT CAVOK
TEMPO 3009/3018 04015G30KT
ATIS : +33 1 39 56 54 70



MET'MAP, your aeronautical weather chart ! - Copyright ORBIFLY December 2007 - Disclaimer

ORBIFLY MET'MAP TEAM :

Programming & Development : Alexandra Zaïnal
Concept & original design : Baudouin d'Aumeries
Assistance for programming : Marc-Olivier Méhu
Technical & hardware support : Manuel Goepfert

Contact : metmap@orbifly.com




SOURCES & CREDITS :

   NOAA